sensor_id;sensor_type;location;lat;lon;timestamp;pressure;altitude;pressure_sealevel;temperature;humidity
24440;BME280;12618;54.386;18.394;2024-03-22T00:01:29;94458.77;;;-28.62;100.00
24440;BME280;12618;54.386;18.394;2024-03-22T00:04:01;94458.07;;;-28.64;100.00
24440;BME280;12618;54.386;18.394;2024-03-22T00:06:32;94450.45;;;-28.66;100.00
24440;BME280;12618;54.386;18.394;2024-03-22T00:09:04;94447.59;;;-28.69;100.00
24440;BME280;12618;54.386;18.394;2024-03-22T00:11:38;94448.70;;;-28.71;100.00
24440;BME280;12618;54.386;18.394;2024-03-22T00:14:11;94450.84;;;-28.73;100.00
24440;BME280;12618;54.386;18.394;2024-03-22T00:16:43;94442.56;;;-28.76;100.00
24440;BME280;12618;54.386;18.394;2024-03-22T00:19:14;94441.91;;;-28.75;100.00
24440;BME280;12618;54.386;18.394;2024-03-22T00:21:46;94435.81;;;-28.75;100.00
24440;BME280;12618;54.386;18.394;2024-03-22T00:24:17;94435.53;;;-28.72;100.00
24440;BME280;12618;54.386;18.394;2024-03-22T00:26:49;94440.70;;;-28.67;100.00
24440;BME280;12618;54.386;18.394;2024-03-22T00:29:20;94437.43;;;-28.66;100.00
24440;BME280;12618;54.386;18.394;2024-03-22T00:31:52;94441.58;;;-28.65;100.00
24440;BME280;12618;54.386;18.394;2024-03-22T00:34:24;94445.39;;;-28.64;100.00
24440;BME280;12618;54.386;18.394;2024-03-22T00:36:55;94442.89;;;-28.65;100.00
24440;BME280;12618;54.386;18.394;2024-03-22T00:39:27;94438.42;;;-28.66;100.00
24440;BME280;12618;54.386;18.394;2024-03-22T00:41:58;94437.92;;;-28.66;100.00
24440;BME280;12618;54.386;18.394;2024-03-22T00:44:30;94435.59;;;-28.68;100.00
24440;BME280;12618;54.386;18.394;2024-03-22T00:47:02;94431.62;;;-28.70;100.00
24440;BME280;12618;54.386;18.394;2024-03-22T00:49:34;94433.23;;;-28.71;100.00
24440;BME280;12618;54.386;18.394;2024-03-22T00:52:06;94429.95;;;-28.71;100.00
24440;BME280;12618;54.386;18.394;2024-03-22T00:54:37;94433.27;;;-28.69;100.00
24440;BME280;12618;54.386;18.394;2024-03-22T00:57:10;94430.29;;;-28.70;100.00
24440;BME280;12618;54.386;18.394;2024-03-22T00:59:42;94432.11;;;-28.69;100.00
24440;BME280;12618;54.386;18.394;2024-03-22T01:02:13;94429.61;;;-28.72;100.00
24440;BME280;12618;54.386;18.394;2024-03-22T01:04:45;94433.91;;;-28.69;100.00
24440;BME280;12618;54.386;18.394;2024-03-22T01:07:17;94431.95;;;-28.69;100.00
24440;BME280;12618;54.386;18.394;2024-03-22T01:09:48;94429.97;;;-28.69;100.00
24440;BME280;12618;54.386;18.394;2024-03-22T01:12:20;94432.98;;;-28.66;100.00
24440;BME280;12618;54.386;18.394;2024-03-22T01:14:51;94428.85;;;-28.68;100.00
24440;BME280;12618;54.386;18.394;2024-03-22T01:17:23;94423.39;;;-28.68;100.00
24440;BME280;12618;54.386;18.394;2024-03-22T01:19:55;94421.91;;;-28.68;100.00
24440;BME280;12618;54.386;18.394;2024-03-22T01:22:27;94421.96;;;-28.66;100.00
24440;BME280;12618;54.386;18.394;2024-03-22T01:24:58;94431.52;;;-28.66;100.00
24440;BME280;12618;54.386;18.394;2024-03-22T01:27:30;94432.22;;;-28.63;100.00
24440;BME280;12618;54.386;18.394;2024-03-22T01:30:02;94428.11;;;-28.63;100.00
24440;BME280;12618;54.386;18.394;2024-03-22T01:32:35;94430.79;;;-28.59;100.00
24440;BME280;12618;54.386;18.394;2024-03-22T01:35:08;94430.48;;;-28.58;100.00
24440;BME280;12618;54.386;18.394;2024-03-22T01:37:39;94422.08;;;-28.58;100.00
24440;BME280;12618;54.386;18.394;2024-03-22T01:40:13;94418.13;;;-28.57;100.00
24440;BME280;12618;54.386;18.394;2024-03-22T01:42:44;94420.45;;;-28.56;100.00
24440;BME280;12618;54.386;18.394;2024-03-22T01:45:16;94417.80;;;-28.57;100.00
24440;BME280;12618;54.386;18.394;2024-03-22T01:47:47;94419.52;;;-28.53;100.00
24440;BME280;12618;54.386;18.394;2024-03-22T01:50:20;94412.37;;;-28.57;100.00
24440;BME280;12618;54.386;18.394;2024-03-22T01:52:52;94409.77;;;-28.55;100.00
24440;BME280;12618;54.386;18.394;2024-03-22T01:55:24;94409.75;;;-28.56;100.00
24440;BME280;12618;54.386;18.394;2024-03-22T01:57:55;94403.78;;;-28.58;100.00
24440;BME280;12618;54.386;18.394;2024-03-22T02:00:27;94408.41;;;-28.57;100.00
24440;BME280;12618;54.386;18.394;2024-03-22T02:02:58;94401.33;;;-28.57;100.00
24440;BME280;12618;54.386;18.394;2024-03-22T02:05:30;94409.96;;;-28.52;100.00
24440;BME280;12618;54.386;18.394;2024-03-22T02:08:01;94399.23;;;-28.54;100.00
24440;BME280;12618;54.386;18.394;2024-03-22T02:10:33;94388.20;;;-28.53;100.00
24440;BME280;12618;54.386;18.394;2024-03-22T02:13:05;94382.50;;;-28.49;100.00
24440;BME280;12618;54.386;18.394;2024-03-22T02:15:36;94382.34;;;-28.47;100.00
24440;BME280;12618;54.386;18.394;2024-03-22T02:18:08;94375.91;;;-28.47;100.00
24440;BME280;12618;54.386;18.394;2024-03-22T02:20:41;94375.81;;;-28.43;100.00
24440;BME280;12618;54.386;18.394;2024-03-22T02:23:12;94372.36;;;-28.43;100.00
24440;BME280;12618;54.386;18.394;2024-03-22T02:25:44;94374.88;;;-28.39;100.00
24440;BME280;12618;54.386;18.394;2024-03-22T02:28:15;94372.73;;;-28.40;100.00
24440;BME280;12618;54.386;18.394;2024-03-22T02:30:47;94373.59;;;-28.38;100.00
24440;BME280;12618;54.386;18.394;2024-03-22T02:33:18;94365.16;;;-28.39;100.00
24440;BME280;12618;54.386;18.394;2024-03-22T02:35:50;94362.70;;;-28.38;100.00
24440;BME280;12618;54.386;18.394;2024-03-22T02:38:22;94359.09;;;-28.37;100.00
24440;BME280;12618;54.386;18.394;2024-03-22T02:40:54;94355.47;;;-28.36;100.00
24440;BME280;12618;54.386;18.394;2024-03-22T02:43:25;94355.89;;;-28.30;100.00
24440;BME280;12618;54.386;18.394;2024-03-22T02:45:57;94347.16;;;-28.30;100.00
24440;BME280;12618;54.386;18.394;2024-03-22T02:48:28;94353.66;;;-28.23;100.00
24440;BME280;12618;54.386;18.394;2024-03-22T02:51:00;94354.20;;;-28.20;100.00
24440;BME280;12618;54.386;18.394;2024-03-22T02:53:31;94350.77;;;-28.18;100.00
24440;BME280;12618;54.386;18.394;2024-03-22T02:56:03;94348.95;;;-28.19;100.00
24440;BME280;12618;54.386;18.394;2024-03-22T02:58:35;94349.12;;;-28.18;100.00
24440;BME280;12618;54.386;18.394;2024-03-22T03:01:08;94333.90;;;-28.22;100.00
24440;BME280;12618;54.386;18.394;2024-03-22T03:03:39;94339.19;;;-28.21;100.00
24440;BME280;12618;54.386;18.394;2024-03-22T03:06:11;94344.15;;;-28.18;100.00
24440;BME280;12618;54.386;18.394;2024-03-22T03:08:44;94346.48;;;-28.15;100.00
24440;BME280;12618;54.386;18.394;2024-03-22T03:11:16;94346.00;;;-28.13;100.00
24440;BME280;12618;54.386;18.394;2024-03-22T03:13:47;94342.23;;;-28.11;100.00
24440;BME280;12618;54.386;18.394;2024-03-22T03:16:19;94337.14;;;-28.09;100.00
24440;BME280;12618;54.386;18.394;2024-03-22T03:18:51;94334.86;;;-28.08;100.00
24440;BME280;12618;54.386;18.394;2024-03-22T03:21:22;94326.42;;;-28.09;100.00
24440;BME280;12618;54.386;18.394;2024-03-22T03:23:54;94329.09;;;-28.07;100.00
24440;BME280;12618;54.386;18.394;2024-03-22T03:26:25;94336.98;;;-28.09;100.00
24440;BME280;12618;54.386;18.394;2024-03-22T03:28:57;94337.31;;;-28.09;100.00
24440;BME280;12618;54.386;18.394;2024-03-22T03:31:29;94333.16;;;-28.11;100.00
24440;BME280;12618;54.386;18.394;2024-03-22T03:34:00;94336.97;;;-28.10;100.00
24440;BME280;12618;54.386;18.394;2024-03-22T03:36:32;94337.63;;;-28.10;100.00
24440;BME280;12618;54.386;18.394;2024-03-22T03:39:03;94333.52;;;-28.09;100.00
24440;BME280;12618;54.386;18.394;2024-03-22T03:41:35;94328.80;;;-28.04;100.00
24440;BME280;12618;54.386;18.394;2024-03-22T03:44:07;94322.86;;;-28.04;100.00
24440;BME280;12618;54.386;18.394;2024-03-22T03:46:38;94323.70;;;-28.02;100.00
24440;BME280;12618;54.386;18.394;2024-03-22T03:49:10;94324.39;;;-28.00;100.00
24440;BME280;12618;54.386;18.394;2024-03-22T03:51:41;94323.09;;;-27.98;100.00
24440;BME280;12618;54.386;18.394;2024-03-22T03:54:13;94317.32;;;-27.99;100.00
24440;BME280;12618;54.386;18.394;2024-03-22T03:56:45;94320.44;;;-27.99;100.00
24440;BME280;12618;54.386;18.394;2024-03-22T03:59:16;94318.11;;;-28.01;100.00
24440;BME280;12618;54.386;18.394;2024-03-22T04:01:48;94315.14;;;-28.01;100.00
24440;BME280;12618;54.386;18.394;2024-03-22T04:04:20;94313.96;;;-28.03;100.00
24440;BME280;12618;54.386;18.394;2024-03-22T04:06:52;94314.95;;;-28.02;100.00
24440;BME280;12618;54.386;18.394;2024-03-22T04:09:23;94303.39;;;-28.06;100.00
24440;BME280;12618;54.386;18.394;2024-03-22T04:11:55;94303.89;;;-28.05;100.00
24440;BME280;12618;54.386;18.394;2024-03-22T04:14:30;94299.11;;;-28.04;100.00
24440;BME280;12618;54.386;18.394;2024-03-22T04:17:01;94299.48;;;-28.01;100.00
24440;BME280;12618;54.386;18.394;2024-03-22T04:19:33;94304.65;;;-27.95;100.00
24440;BME280;12618;54.386;18.394;2024-03-22T04:22:04;94296.56;;;-27.97;100.00
24440;BME280;12618;54.386;18.394;2024-03-22T04:24:36;94295.91;;;-27.96;100.00
24440;BME280;12618;54.386;18.394;2024-03-22T04:27:07;94292.60;;;-27.96;100.00
24440;BME280;12618;54.386;18.394;2024-03-22T04:29:39;94287.45;;;-27.99;100.00
24440;BME280;12618;54.386;18.394;2024-03-22T04:32:10;94283.30;;;-28.02;100.00
24440;BME280;12618;54.386;18.394;2024-03-22T04:34:42;94284.10;;;-28.03;100.00
24440;BME280;12618;54.386;18.394;2024-03-22T04:37:14;94285.30;;;-28.01;100.00
24440;BME280;12618;54.386;18.394;2024-03-22T04:39:48;94280.17;;;-28.01;100.00
24440;BME280;12618;54.386;18.394;2024-03-22T04:42:20;94279.54;;;-27.99;100.00
24440;BME280;12618;54.386;18.394;2024-03-22T04:44:51;94274.58;;;-28.00;100.00
24440;BME280;12618;54.386;18.394;2024-03-22T04:47:23;94269.31;;;-27.99;100.00
24440;BME280;12618;54.386;18.394;2024-03-22T04:52:46;94285.23;;;-27.92;100.00
24440;BME280;12618;54.386;18.394;2024-03-22T04:55:17;94286.84;;;-27.95;100.00
24440;BME280;12618;54.386;18.394;2024-03-22T04:57:49;94279.05;;;-27.98;100.00
24440;BME280;12618;54.386;18.394;2024-03-22T05:00:21;94281.88;;;-27.96;100.00
24440;BME280;12618;54.386;18.394;2024-03-22T05:02:52;94292.67;;;-27.89;100.00
24440;BME280;12618;54.386;18.394;2024-03-22T05:05:24;94289.38;;;-27.89;100.00
24440;BME280;12618;54.386;18.394;2024-03-22T05:07:55;94285.56;;;-27.91;100.00
24440;BME280;12618;54.386;18.394;2024-03-22T05:10:28;94292.71;;;-27.86;100.00
24440;BME280;12618;54.386;18.394;2024-03-22T05:13:00;94286.92;;;-27.87;100.00
24440;BME280;12618;54.386;18.394;2024-03-22T05:15:32;94282.27;;;-27.89;100.00
24440;BME280;12618;54.386;18.394;2024-03-22T05:18:03;94272.05;;;-27.89;100.00
24440;BME280;12618;54.386;18.394;2024-03-22T05:20:35;94276.30;;;-27.92;100.00
24440;BME280;12618;54.386;18.394;2024-03-22T05:23:07;94272.52;;;-27.91;100.00
24440;BME280;12618;54.386;18.394;2024-03-22T05:25:39;94272.23;;;-27.89;100.00
24440;BME280;12618;54.386;18.394;2024-03-22T05:28:10;94261.79;;;-27.93;100.00
24440;BME280;12618;54.386;18.394;2024-03-22T05:30:42;94256.67;;;-27.93;100.00
24440;BME280;12618;54.386;18.394;2024-03-22T05:33:14;94256.83;;;-27.95;100.00
24440;BME280;12618;54.386;18.394;2024-03-22T05:35:46;94250.70;;;-27.97;100.00
24440;BME280;12618;54.386;18.394;2024-03-22T05:38:18;94244.08;;;-27.99;100.00
24440;BME280;12618;54.386;18.394;2024-03-22T05:40:49;94244.95;;;-27.95;100.00
24440;BME280;12618;54.386;18.394;2024-03-22T05:43:21;94239.64;;;-27.98;100.00
24440;BME280;12618;54.386;18.394;2024-03-22T05:45:53;94240.83;;;-27.95;100.00
24440;BME280;12618;54.386;18.394;2024-03-22T05:48:24;94239.66;;;-27.96;100.00
24440;BME280;12618;54.386;18.394;2024-03-22T05:50:57;94239.84;;;-27.96;100.00
24440;BME280;12618;54.386;18.394;2024-03-22T05:53:28;94231.25;;;-27.96;100.00
24440;BME280;12618;54.386;18.394;2024-03-22T05:56:00;94229.63;;;-27.93;100.00
24440;BME280;12618;54.386;18.394;2024-03-22T05:58:31;94227.14;;;-27.95;100.00
24440;BME280;12618;54.386;18.394;2024-03-22T06:01:03;94221.52;;;-27.95;100.00
24440;BME280;12618;54.386;18.394;2024-03-22T06:03:34;94213.58;;;-27.99;100.00
24440;BME280;12618;54.386;18.394;2024-03-22T06:06:06;94213.77;;;-27.97;100.00
24440;BME280;12618;54.386;18.394;2024-03-22T06:08:38;94213.05;;;-28.01;100.00
24440;BME280;12618;54.386;18.394;2024-03-22T06:11:10;94207.76;;;-28.03;100.00
24440;BME280;12618;54.386;18.394;2024-03-22T06:13:46;94204.62;;;-28.04;100.00
24440;BME280;12618;54.386;18.394;2024-03-22T06:16:18;94196.69;;;-28.05;100.00
24440;BME280;12618;54.386;18.394;2024-03-22T06:18:53;94191.71;;;-28.09;100.00
24440;BME280;12618;54.386;18.394;2024-03-22T06:21:24;94195.52;;;-28.08;100.00
24440;BME280;12618;54.386;18.394;2024-03-22T06:23:57;94195.69;;;-28.07;100.00
24440;BME280;12618;54.386;18.394;2024-03-22T06:26:28;94196.51;;;-28.08;100.00
24440;BME280;12618;54.386;18.394;2024-03-22T06:29:11;94197.36;;;-28.04;100.00
24440;BME280;12618;54.386;18.394;2024-03-22T06:31:44;94195.55;;;-28.04;100.00
24440;BME280;12618;54.386;18.394;2024-03-22T06:34:15;94194.55;;;-28.03;100.00
24440;BME280;12618;54.386;18.394;2024-03-22T06:36:47;94196.95;;;-27.96;100.00
24440;BME280;12618;54.386;18.394;2024-03-22T06:39:20;94195.00;;;-27.91;100.00
24440;BME280;12618;54.386;18.394;2024-03-22T06:41:51;94196.01;;;-27.90;100.00
24440;BME280;12618;54.386;18.394;2024-03-22T06:44:23;94201.66;;;-27.85;100.00
24440;BME280;12618;54.386;18.394;2024-03-22T06:46:55;94201.17;;;-27.83;100.00
24440;BME280;12618;54.386;18.394;2024-03-22T06:49:26;94196.08;;;-27.82;100.00
24440;BME280;12618;54.386;18.394;2024-03-22T06:51:58;94190.33;;;-27.79;100.00
24440;BME280;12618;54.386;18.394;2024-03-22T06:54:30;94181.96;;;-27.73;100.00
24440;BME280;12618;54.386;18.394;2024-03-22T06:57:02;94179.84;;;-27.70;100.00
24440;BME280;12618;54.386;18.394;2024-03-22T06:59:34;94172.08;;;-27.73;100.00
24440;BME280;12618;54.386;18.394;2024-03-22T07:02:05;94167.30;;;-27.73;100.00
24440;BME280;12618;54.386;18.394;2024-03-22T07:04:37;94160.83;;;-27.75;100.00
24440;BME280;12618;54.386;18.394;2024-03-22T07:07:09;94162.48;;;-27.75;100.00
24440;BME280;12618;54.386;18.394;2024-03-22T07:09:40;94156.38;;;-27.76;100.00
24440;BME280;12618;54.386;18.394;2024-03-22T07:12:40;94152.42;;;-27.73;100.00
24440;BME280;12618;54.386;18.394;2024-03-22T07:22:10;94124.92;;;-27.67;100.00
24440;BME280;12618;54.386;18.394;2024-03-22T07:26:04;94122.10;;;-27.68;100.00
24440;BME280;12618;54.386;18.394;2024-03-22T07:29:13;94120.98;;;-27.63;100.00
24440;BME280;12618;54.386;18.394;2024-03-22T07:32:34;94116.21;;;-27.60;100.00
24440;BME280;12618;54.386;18.394;2024-03-22T07:35:49;94116.56;;;-27.56;100.00
24440;BME280;12618;54.386;18.394;2024-03-22T07:39:20;94116.41;;;-27.51;100.00
24440;BME280;12618;54.386;18.394;2024-03-22T07:51:30;94088.61;;;-27.32;100.00
24440;BME280;12618;54.386;18.394;2024-03-22T07:57:55;94091.25;;;-27.33;100.00
24440;BME280;12618;54.386;18.394;2024-03-22T08:00:29;94084.83;;;-27.30;100.00
24440;BME280;12618;54.386;18.394;2024-03-22T08:03:00;94076.42;;;-27.25;100.00
24440;BME280;12618;54.386;18.394;2024-03-22T08:05:32;94070.51;;;-27.20;100.00
24440;BME280;12618;54.386;18.394;2024-03-22T08:08:03;94064.92;;;-27.15;100.00
24440;BME280;12618;54.386;18.394;2024-03-22T08:10:35;94066.44;;;-27.04;100.00
24440;BME280;12618;54.386;18.394;2024-03-22T08:13:07;94063.33;;;-26.98;100.00
24440;BME280;12618;54.386;18.394;2024-03-22T08:15:38;94064.00;;;-26.97;100.00
24440;BME280;12618;54.386;18.394;2024-03-22T08:18:10;94063.01;;;-26.89;100.00
24440;BME280;12618;54.386;18.394;2024-03-22T08:20:42;94048.82;;;-26.78;100.00
24440;BME280;12618;54.386;18.394;2024-03-22T08:23:14;94044.21;;;-26.64;100.00
24440;BME280;12618;54.386;18.394;2024-03-22T08:25:46;94045.23;;;-26.55;100.00
24440;BME280;12618;54.386;18.394;2024-03-22T08:28:17;94040.60;;;-26.52;100.00
24440;BME280;12618;54.386;18.394;2024-03-22T08:31:05;94036.14;;;-26.45;100.00
24440;BME280;12618;54.386;18.394;2024-03-22T08:33:37;94030.20;;;-26.39;100.00
24440;BME280;12618;54.386;18.394;2024-03-22T08:36:08;94022.58;;;-26.35;100.00
24440;BME280;12618;54.386;18.394;2024-03-22T08:38:40;94016.29;;;-26.27;100.00
24440;BME280;12618;54.386;18.394;2024-03-22T08:41:12;94012.64;;;-26.20;100.00
24440;BME280;12618;54.386;18.394;2024-03-22T08:43:43;94007.00;;;-26.00;100.00
24440;BME280;12618;54.386;18.394;2024-03-22T08:46:16;94001.85;;;-25.92;100.00
24440;BME280;12618;54.386;18.394;2024-03-22T08:48:48;93997.67;;;-25.72;100.00
24440;BME280;12618;54.386;18.394;2024-03-22T08:51:21;93995.92;;;-25.45;100.00
24440;BME280;12618;54.386;18.394;2024-03-22T08:53:54;94000.33;;;-25.28;100.00
24440;BME280;12618;54.386;18.394;2024-03-22T08:56:27;93995.67;;;-25.24;100.00
24440;BME280;12618;54.386;18.394;2024-03-22T08:58:59;93995.89;;;-25.36;100.00
24440;BME280;12618;54.386;18.394;2024-03-22T09:01:31;93989.00;;;-25.56;100.00
24440;BME280;12618;54.386;18.394;2024-03-22T09:04:04;93978.94;;;-25.61;100.00
24440;BME280;12618;54.386;18.394;2024-03-22T09:06:35;93973.33;;;-25.62;100.00
24440;BME280;12618;54.386;18.394;2024-03-22T09:09:07;93968.17;;;-25.62;100.00
24440;BME280;12618;54.386;18.394;2024-03-22T09:11:40;93971.79;;;-25.55;100.00
24440;BME280;12618;54.386;18.394;2024-03-22T09:14:12;93968.47;;;-25.55;100.00
24440;BME280;12618;54.386;18.394;2024-03-22T09:16:43;93951.98;;;-25.66;100.00
24440;BME280;12618;54.386;18.394;2024-03-22T09:19:15;93949.00;;;-25.69;100.00
24440;BME280;12618;54.386;18.394;2024-03-22T09:21:47;93941.88;;;-25.64;100.00
24440;BME280;12618;54.386;18.394;2024-03-22T09:24:19;93937.49;;;-25.52;100.00
24440;BME280;12618;54.386;18.394;2024-03-22T09:26:50;93932.00;;;-25.46;100.00
24440;BME280;12618;54.386;18.394;2024-03-22T09:29:22;93924.86;;;-25.42;100.00
24440;BME280;12618;54.386;18.394;2024-03-22T09:31:54;93916.41;;;-25.40;100.00
24440;BME280;12618;54.386;18.394;2024-03-22T09:34:25;93919.54;;;-25.37;100.00
24440;BME280;12618;54.386;18.394;2024-03-22T09:36:57;93917.56;;;-25.40;100.00
24440;BME280;12618;54.386;18.394;2024-03-22T09:39:29;93923.70;;;-25.40;100.00
24440;BME280;12618;54.386;18.394;2024-03-22T09:42:05;93926.20;;;-25.42;100.00
24440;BME280;12618;54.386;18.394;2024-03-22T09:44:37;93924.55;;;-25.46;100.00
24440;BME280;12618;54.386;18.394;2024-03-22T09:47:12;93917.97;;;-25.54;100.00
24440;BME280;12618;54.386;18.394;2024-03-22T09:49:47;93909.71;;;-25.58;100.00
24440;BME280;12618;54.386;18.394;2024-03-22T09:52:21;93910.55;;;-25.59;100.00
24440;BME280;12618;54.386;18.394;2024-03-22T09:54:53;93910.60;;;-25.70;100.00
24440;BME280;12618;54.386;18.394;2024-03-22T09:57:25;93907.00;;;-25.79;100.00
24440;BME280;12618;54.386;18.394;2024-03-22T09:59:58;93898.27;;;-25.87;100.00
24440;BME280;12618;54.386;18.394;2024-03-22T10:02:31;93900.88;;;-25.83;100.00
24440;BME280;12618;54.386;18.394;2024-03-22T10:05:03;93891.44;;;-25.81;100.00
24440;BME280;12618;54.386;18.394;2024-03-22T10:07:35;93886.13;;;-25.76;100.00
24440;BME280;12618;54.386;18.394;2024-03-22T10:10:07;93887.80;;;-25.76;100.00
24440;BME280;12618;54.386;18.394;2024-03-22T10:12:41;93885.31;;;-25.76;100.00
24440;BME280;12618;54.386;18.394;2024-03-22T10:15:13;93882.48;;;-25.75;100.00
24440;BME280;12618;54.386;18.394;2024-03-22T10:18:03;93880.00;;;-25.73;100.00
24440;BME280;12618;54.386;18.394;2024-03-22T10:20:35;93875.89;;;-25.80;100.00
24440;BME280;12618;54.386;18.394;2024-03-22T10:23:07;93883.16;;;-25.77;100.00
24440;BME280;12618;54.386;18.394;2024-03-22T10:25:39;93872.57;;;-25.79;100.00
24440;BME280;12618;54.386;18.394;2024-03-22T10:28:13;93867.27;;;-25.75;100.00
24440;BME280;12618;54.386;18.394;2024-03-22T10:30:47;93872.02;;;-25.68;100.00
24440;BME280;12618;54.386;18.394;2024-03-22T10:33:21;93874.02;;;-25.69;100.00
24440;BME280;12618;54.386;18.394;2024-03-22T10:35:55;93863.43;;;-25.71;100.00
24440;BME280;12618;54.386;18.394;2024-03-22T10:38:29;93856.46;;;-25.70;100.00
24440;BME280;12618;54.386;18.394;2024-03-22T10:41:02;93853.50;;;-25.72;100.00
24440;BME280;12618;54.386;18.394;2024-03-22T10:43:35;93846.08;;;-25.76;100.00
24440;BME280;12618;54.386;18.394;2024-03-22T10:46:08;93842.10;;;-25.73;100.00
24440;BME280;12618;54.386;18.394;2024-03-22T10:48:41;93837.45;;;-25.70;100.00
24440;BME280;12618;54.386;18.394;2024-03-22T10:51:15;93834.28;;;-25.68;100.00
24440;BME280;12618;54.386;18.394;2024-03-22T10:53:48;93826.14;;;-25.62;100.00
24440;BME280;12618;54.386;18.394;2024-03-22T10:56:22;93820.94;;;-25.55;100.00
24440;BME280;12618;54.386;18.394;2024-03-22T10:58:54;93815.95;;;-25.51;100.00
24440;BME280;12618;54.386;18.394;2024-03-22T11:01:26;93809.16;;;-25.51;100.00
24440;BME280;12618;54.386;18.394;2024-03-22T11:04:08;93814.93;;;-25.48;100.00
24440;BME280;12618;54.386;18.394;2024-03-22T11:06:47;93810.63;;;-25.48;100.00
24440;BME280;12618;54.386;18.394;2024-03-22T11:09:22;93811.42;;;-25.43;100.00
24440;BME280;12618;54.386;18.394;2024-03-22T11:11:55;93814.52;;;-25.37;100.00
24440;BME280;12618;54.386;18.394;2024-03-22T11:14:31;93813.53;;;-25.37;100.00
24440;BME280;12618;54.386;18.394;2024-03-22T11:17:03;93808.56;;;-25.36;100.00
24440;BME280;12618;54.386;18.394;2024-03-22T11:19:36;93799.11;;;-25.33;100.00
24440;BME280;12618;54.386;18.394;2024-03-22T11:29:14;93778.48;;;-25.23;100.00
24440;BME280;12618;54.386;18.394;2024-03-22T11:31:45;93778.29;;;-25.19;100.00
24440;BME280;12618;54.386;18.394;2024-03-22T11:34:17;93769.63;;;-25.11;100.00
24440;BME280;12618;54.386;18.394;2024-03-22T11:36:48;93762.33;;;-25.11;100.00
24440;BME280;12618;54.386;18.394;2024-03-22T11:39:22;93750.19;;;-25.06;100.00
24440;BME280;12618;54.386;18.394;2024-03-22T11:41:53;93746.33;;;-25.01;100.00
24440;BME280;12618;54.386;18.394;2024-03-22T11:44:25;93738.98;;;-24.95;100.00
24440;BME280;12618;54.386;18.394;2024-03-22T11:46:57;93735.98;;;-24.93;100.00
24440;BME280;12618;54.386;18.394;2024-03-22T11:49:29;93742.08;;;-24.91;100.00
24440;BME280;12618;54.386;18.394;2024-03-22T11:52:00;93747.04;;;-24.90;100.00
24440;BME280;12618;54.386;18.394;2024-03-22T11:54:32;93746.91;;;-24.93;100.00
24440;BME280;12618;54.386;18.394;2024-03-22T11:57:04;93740.58;;;-24.90;100.00
24440;BME280;12618;54.386;18.394;2024-03-22T11:59:35;93733.41;;;-24.87;100.00
24440;BME280;12618;54.386;18.394;2024-03-22T12:02:08;93727.27;;;-24.85;100.00
24440;BME280;12618;54.386;18.394;2024-03-22T12:04:42;93722.27;;;-24.84;100.00
24440;BME280;12618;54.386;18.394;2024-03-22T12:07:16;93724.73;;;-24.80;100.00
24440;BME280;12618;54.386;18.394;2024-03-22T12:09:48;93725.23;;;-24.81;100.00
24440;BME280;12618;54.386;18.394;2024-03-22T12:12:21;93710.77;;;-24.78;100.00
24440;BME280;12618;54.386;18.394;2024-03-22T12:14:56;93698.77;;;-24.71;100.00
